AAL5275 KDHN-KECP
Flight info
| Callsign | AAL5275 |
|---|---|
| Flight time | 0h 21m |
| Altitude | 12000 |
| Route | DCT POPER DCT |
| Aircraft | A319/M-FAA/L |
Departure
| Time | 2026-05-09 00:06 |
|---|---|
| Airport | Dothan Regional Airport (KDHN) |
Arrival
| Time | 2026-05-09 00:28 |
|---|---|
| Airport | Northwest Florida Beaches International Airport (KECP) |
| Time | Latitude | Longitude | Altitude | Speed | Heading |
|---|---|---|---|---|---|
| 2026-05-08 23:42 | 31.31511 | -85.44792 | 388 ft | 0 kts | 270° |
| 2026-05-08 23:48 | 31.31510 | -85.44780 | 388 ft | 2 kts | 330° |
| 2026-05-08 23:48 | 31.31495 | -85.44773 | 388 ft | 2 kts | 352° |
| 2026-05-08 23:48 | 31.31484 | -85.44772 | 388 ft | 0 kts | 4° |
| 2026-05-09 00:03 | 31.31520 | -85.44769 | 387 ft | 9 kts | 9° |
| 2026-05-09 00:03 | 31.31587 | -85.44755 | 386 ft | 7 kts | 20° |
| 2026-05-09 00:03 | 31.31592 | -85.44694 | 387 ft | 10 kts | 125° |
| 2026-05-09 00:04 | 31.31541 | -85.44633 | 387 ft | 12 kts | 137° |
| 2026-05-09 00:04 | 31.31476 | -85.44558 | 387 ft | 14 kts | 135° |
| 2026-05-09 00:04 | 31.31399 | -85.44469 | 389 ft | 17 kts | 135° |
| 2026-05-09 00:04 | 31.31328 | -85.44369 | 389 ft | 14 kts | 96° |
| 2026-05-09 00:05 | 31.31397 | -85.44277 | 388 ft | 17 kts | 27° |
| 2026-05-09 00:05 | 31.31495 | -85.44345 | 388 ft | 19 kts | 314° |
| 2026-05-09 00:05 | 31.31618 | -85.44489 | 387 ft | 47 kts | 315° |
| 2026-05-09 00:05 | 31.32098 | -85.45049 | 392 ft | 144 kts | 315° |
| 2026-05-09 00:06 | 31.32917 | -85.45996 | 820 ft | 181 kts | 315° |
| 2026-05-09 00:06 | 31.33852 | -85.47080 | 1490 ft | 196 kts | 314° |
| 2026-05-09 00:06 | 31.34851 | -85.48261 | 2178 ft | 215 kts | 313° |
| 2026-05-09 00:06 | 31.35956 | -85.49589 | 3063 ft | 239 kts | 311° |
| 2026-05-09 00:07 | 31.36992 | -85.51215 | 3908 ft | 262 kts | 290° |
| 2026-05-09 00:07 | 31.37140 | -85.53390 | 4840 ft | 282 kts | 257° |
| 2026-05-09 00:07 | 31.36209 | -85.55382 | 5721 ft | 277 kts | 226° |
| 2026-05-09 00:07 | 31.34610 | -85.56505 | 5842 ft | 270 kts | 196° |
| 2026-05-09 00:08 | 31.32706 | -85.56414 | 6300 ft | 281 kts | 170° |
| 2026-05-09 00:08 | 31.30796 | -85.55967 | 7448 ft | 280 kts | 173° |
| 2026-05-09 00:08 | 31.28867 | -85.55604 | 8658 ft | 280 kts | 175° |
| 2026-05-09 00:08 | 31.26928 | -85.55278 | 9790 ft | 282 kts | 176° |
| 2026-05-09 00:09 | 31.24985 | -85.54965 | 10799 ft | 283 kts | 177° |
| 2026-05-09 00:09 | 31.23015 | -85.54644 | 11562 ft | 288 kts | 178° |
| 2026-05-09 00:09 | 31.21057 | -85.54316 | 11845 ft | 287 kts | 177° |
| 2026-05-09 00:09 | 31.19080 | -85.53977 | 11960 ft | 287 kts | 177° |
| 2026-05-09 00:10 | 31.17113 | -85.53634 | 11982 ft | 286 kts | 177° |
| 2026-05-09 00:10 | 31.15133 | -85.53289 | 11970 ft | 288 kts | 176° |
| 2026-05-09 00:10 | 31.13050 | -85.52934 | 11977 ft | 322 kts | 176° |
| 2026-05-09 00:10 | 31.10737 | -85.52543 | 11971 ft | 346 kts | 176° |
| 2026-05-09 00:11 | 31.08329 | -85.52119 | 11970 ft | 351 kts | 175° |
| 2026-05-09 00:11 | 31.05909 | -85.51683 | 11965 ft | 352 kts | 175° |
| 2026-05-09 00:11 | 31.03492 | -85.51245 | 11960 ft | 352 kts | 175° |
| 2026-05-09 00:11 | 31.01062 | -85.50806 | 11956 ft | 352 kts | 175° |
| 2026-05-09 00:12 | 30.98636 | -85.50372 | 11950 ft | 353 kts | 175° |
| 2026-05-09 00:12 | 30.96212 | -85.49940 | 11946 ft | 353 kts | 175° |
| 2026-05-09 00:12 | 30.93790 | -85.49492 | 11947 ft | 353 kts | 175° |
| 2026-05-09 00:12 | 30.91363 | -85.49041 | 11970 ft | 353 kts | 175° |
| 2026-05-09 00:13 | 30.88939 | -85.48591 | 11970 ft | 353 kts | 175° |
| 2026-05-09 00:13 | 30.86516 | -85.48138 | 11963 ft | 352 kts | 175° |
| 2026-05-09 00:13 | 30.84098 | -85.47681 | 11971 ft | 351 kts | 175° |
| 2026-05-09 00:13 | 30.81686 | -85.47225 | 11971 ft | 351 kts | 175° |
| 2026-05-09 00:14 | 30.79272 | -85.46769 | 11962 ft | 351 kts | 175° |
| 2026-05-09 00:14 | 30.76881 | -85.46317 | 11480 ft | 346 kts | 175° |
| 2026-05-09 00:14 | 30.74548 | -85.46199 | 10893 ft | 337 kts | 190° |
| 2026-05-09 00:14 | 30.72262 | -85.46688 | 10298 ft | 333 kts | 194° |
| 2026-05-09 00:15 | 30.69990 | -85.47223 | 10027 ft | 334 kts | 194° |
| 2026-05-09 00:15 | 30.67744 | -85.47751 | 9944 ft | 320 kts | 194° |
| 2026-05-09 00:15 | 30.65602 | -85.48253 | 9952 ft | 300 kts | 194° |
| 2026-05-09 00:15 | 30.63616 | -85.48718 | 9953 ft | 283 kts | 195° |
| 2026-05-09 00:16 | 30.61747 | -85.49159 | 9951 ft | 275 kts | 195° |
| 2026-05-09 00:16 | 30.59855 | -85.49605 | 9949 ft | 273 kts | 195° |
| 2026-05-09 00:16 | 30.58017 | -85.50040 | 9968 ft | 271 kts | 195° |
| 2026-05-09 00:16 | 30.56174 | -85.50473 | 9565 ft | 270 kts | 195° |
| 2026-05-09 00:17 | 30.54331 | -85.50904 | 9097 ft | 270 kts | 195° |
| 2026-05-09 00:17 | 30.52492 | -85.51334 | 8681 ft | 269 kts | 195° |
| 2026-05-09 00:17 | 30.50667 | -85.51766 | 8272 ft | 268 kts | 194° |
| 2026-05-09 00:17 | 30.48840 | -85.52200 | 7874 ft | 268 kts | 194° |
| 2026-05-09 00:18 | 30.47015 | -85.52631 | 7462 ft | 268 kts | 194° |
| 2026-05-09 00:18 | 30.45193 | -85.53061 | 7084 ft | 267 kts | 194° |
| 2026-05-09 00:18 | 30.43374 | -85.53494 | 6716 ft | 266 kts | 194° |
| 2026-05-09 00:18 | 30.41560 | -85.53923 | 6353 ft | 266 kts | 194° |
| 2026-05-09 00:19 | 30.39745 | -85.54351 | 5983 ft | 265 kts | 193° |
| 2026-05-09 00:19 | 30.37938 | -85.54770 | 5635 ft | 265 kts | 193° |
| 2026-05-09 00:19 | 30.36139 | -85.55186 | 5294 ft | 263 kts | 193° |
| 2026-05-09 00:19 | 30.34345 | -85.55605 | 4920 ft | 263 kts | 193° |
| 2026-05-09 00:20 | 30.32552 | -85.56026 | 4544 ft | 262 kts | 192° |
| 2026-05-09 00:20 | 30.30771 | -85.56445 | 4204 ft | 261 kts | 192° |
| 2026-05-09 00:20 | 30.28997 | -85.56859 | 3865 ft | 259 kts | 192° |
| 2026-05-09 00:20 | 30.27229 | -85.57270 | 3503 ft | 258 kts | 192° |
| 2026-05-09 00:21 | 30.25468 | -85.57679 | 3172 ft | 256 kts | 191° |
| 2026-05-09 00:21 | 30.23725 | -85.58086 | 3024 ft | 257 kts | 191° |
| 2026-05-09 00:21 | 30.21970 | -85.58500 | 3010 ft | 259 kts | 191° |
| 2026-05-09 00:21 | 30.20281 | -85.59197 | 3008 ft | 260 kts | 211° |
| 2026-05-09 00:22 | 30.19004 | -85.60665 | 3011 ft | 262 kts | 237° |
| 2026-05-09 00:22 | 30.18418 | -85.62651 | 3008 ft | 263 kts | 263° |
| 2026-05-09 00:22 | 30.18562 | -85.64693 | 3009 ft | 247 kts | 277° |
| 2026-05-09 00:22 | 30.18842 | -85.66588 | 3008 ft | 232 kts | 284° |
| 2026-05-09 00:23 | 30.19425 | -85.68243 | 3010 ft | 220 kts | 297° |
| 2026-05-09 00:23 | 30.20148 | -85.69751 | 3013 ft | 211 kts | 297° |
| 2026-05-09 00:23 | 30.20852 | -85.71220 | 2981 ft | 207 kts | 298° |
| 2026-05-09 00:23 | 30.21540 | -85.72622 | 2934 ft | 191 kts | 301° |
| 2026-05-09 00:24 | 30.22449 | -85.73649 | 2852 ft | 173 kts | 326° |
| 2026-05-09 00:24 | 30.23511 | -85.74190 | 2620 ft | 166 kts | 340° |
| 2026-05-09 00:24 | 30.24574 | -85.74647 | 2368 ft | 160 kts | 341° |
| 2026-05-09 00:24 | 30.25596 | -85.75093 | 2134 ft | 154 kts | 343° |
| 2026-05-09 00:25 | 30.26593 | -85.75530 | 1913 ft | 151 kts | 345° |
| 2026-05-09 00:25 | 30.27569 | -85.75955 | 1697 ft | 150 kts | 344° |
| 2026-05-09 00:25 | 30.28536 | -85.76381 | 1469 ft | 148 kts | 343° |
| 2026-05-09 00:25 | 30.29486 | -85.76796 | 1255 ft | 143 kts | 343° |
| 2026-05-09 00:26 | 30.30395 | -85.77190 | 1057 ft | 138 kts | 343° |
| 2026-05-09 00:26 | 30.31279 | -85.77601 | 819 ft | 135 kts | 341° |
| 2026-05-09 00:26 | 30.32140 | -85.77964 | 618 ft | 129 kts | 341° |
| 2026-05-09 00:26 | 30.32965 | -85.78321 | 446 ft | 126 kts | 340° |
| 2026-05-09 00:27 | 30.33789 | -85.78679 | 271 ft | 125 kts | 339° |
| 2026-05-09 00:27 | 30.34604 | -85.79035 | 106 ft | 125 kts | 340° |
| 2026-05-09 00:27 | 30.35399 | -85.79378 | 70 ft | 115 kts | 339° |
| 2026-05-09 00:27 | 30.35986 | -85.79631 | 68 ft | 60 kts | 339° |
| 2026-05-09 00:28 | 30.36177 | -85.79784 | 77 ft | 22 kts | 253° |
| 2026-05-09 00:28 | 30.36155 | -85.79853 | 74 ft | 2 kts | 242° |
| 2026-05-09 00:28 | 30.36046 | -85.79859 | 78 ft | 31 kts | 152° |
| 2026-05-09 00:28 | 30.35836 | -85.79770 | 69 ft | 34 kts | 159° |
| 2026-05-09 00:29 | 30.35605 | -85.79669 | 72 ft | 37 kts | 159° |
| 2026-05-09 00:29 | 30.35356 | -85.79560 | 71 ft | 40 kts | 160° |
| 2026-05-09 00:29 | 30.35090 | -85.79446 | 73 ft | 42 kts | 159° |
| 2026-05-09 00:29 | 30.34809 | -85.79322 | 68 ft | 44 kts | 159° |
| 2026-05-09 00:30 | 30.34576 | -85.79221 | 63 ft | 6 kts | 159° |
| 2026-05-09 00:30 | 30.34575 | -85.79220 | 64 ft | 0 kts | 159° |
| 2026-05-09 00:30 | 30.34572 | -85.79219 | 65 ft | 2 kts | 159° |
| 2026-05-09 00:30 | 30.34540 | -85.79205 | 66 ft | 8 kts | 160° |
| 2026-05-09 00:31 | 30.34499 | -85.79188 | 65 ft | 0 kts | 160° |
| 2026-05-09 00:32 | 30.34501 | -85.79189 | 64 ft | 1 kts | 170° |
| 2026-05-09 00:32 | 30.34484 | -85.79207 | 67 ft | 22 kts | 221° |
| 2026-05-09 00:32 | 30.34422 | -85.79388 | 68 ft | 18 kts | 249° |
| 2026-05-09 00:33 | 30.34364 | -85.79384 | 62 ft | 0 kts | 65° |